Negotin, Serbia
Current Conditions -  °F | °C
As of 3:00 AM on Sunday 23 Nov 2014 (Local Time) from LRCV Reporting Station
Overcast Overcast  
Wind Chill:   Ceiling: 3000
Heat Index:   Visibility: 4mi
Dew Point:   Wind: 5mph
Humidity: 87%   Direction: 160°SSE
Pressure: 30.33"   Gusts: NA
Location:  44.23°N, 22.53°E
Report Text: LRCV 230100Z 16004KT 7000 OVC030 04/02 Q1027
Loading
Personal Weather Stations






























Interactive Weather Map New forecast layout! Learn more

10-Day Weather Forecast

Advertisements
Track Severe Weather on mobile